Date,TemperatureHighF,TemperatureAvgF,TemperatureLowF,DewpointHighF,DewpointAvgF,DewpointLowF,HumidityHigh,HumidityAvg,HumidityLow,PressureMaxIn,PressureMinIn,WindSpeedMaxMPH,WindSpeedAvgMPH,GustSpeedMaxMPH,PrecipitationSumIn
2013-1-1,42.5,33.7,28.8,32.2,29.6,27.0,95,86,64,30.41,30.27,2,1,5,0.00
2013-1-2,45.7,35.1,29.8,32.8,27.6,23.3,90,75,41,30.27,30.10,2,1,5,0.00
2013-1-3,45.7,35.3,28.2,34.7,27.0,23.1,94,74,44,30.11,30.01,3,1,10,0.17
2013-1-4,49.5,42.9,36.3,45.5,40.9,34.7,100,93,77,30.22,30.08,3,1,8,0.04
2013-1-5,44.8,42.1,40.3,40.2,36.8,34.6,95,82,69,30.12,30.03,2,0,8,0.11
2013-1-6,44.9,42.3,40.2,41.2,39.7,38.1,96,91,82,30.10,29.91,7,1,12,0.09
2013-1-7,49.4,45.8,40.3,47.5,43.7,38.4,97,92,85,30.06,29.72,5,1,19,0.12
2013-1-8,49.9,46.2,41.5,49.6,44.7,39.6,100,95,86,30.07,29.65,16,2,22,0.42
2013-1-9,49.4,39.8,33.8,49.4,39.7,33.3,100,99,97,29.87,29.59,12,2,16,1.02
2013-1-10,37.6,35.1,30.6,37.6,35.0,30.6,100,100,99,30.03,29.86,2,0,5,0.20
2013-1-11,33.1,29.0,26.0,30.4,27.7,24.5,100,95,84,30.25,30.02,6,0,7,0.01
2013-1-12,37.5,29.1,25.1,30.1,24.8,22.3,95,85,61,30.36,30.24,3,1,7,0.02
2013-1-13,35.9,29.2,23.8,27.9,25.0,22.1,93,85,62,30.41,30.35,2,0,6,0.02
2013-1-14,36.9,33.9,31.8,31.1,28.7,25.7,89,81,65,30.48,30.39,3,0,6,0.01
2013-1-15,43.1,35.4,31.2,35.0,30.7,28.9,92,83,63,30.61,30.48,6,1,7,0.00
2013-1-16,40.9,33.1,28.2,34.4,30.3,27.2,97,90,75,30.59,30.44,4,0,7,0.01
2013-1-17,36.3,32.4,28.7,36.0,31.8,27.7,100,98,93,30.44,30.22,2,0,3,0.00
2013-1-18,36.3,32.8,30.9,36.3,32.8,30.9,100,100,100,30.27,30.18,2,0,5,0.00
2013-1-19,34.3,32.2,29.5,34.3,32.2,29.5,100,100,100,30.30,30.26,3,0,6,0.00
2013-1-20,39.1,33.4,30.3,37.2,32.7,30.2,100,98,90,30.31,30.18,3,1,6,0.00
2013-1-21,34.7,31.8,28.8,34.7,31.7,28.8,100,100,97,30.19,30.06,2,0,6,0.00
2013-1-22,37.9,33.9,30.0,36.3,33.0,30.0,100,97,87,30.07,29.82,2,0,3,0.00
2013-1-23,42.1,39.8,36.3,41.8,36.6,29.5,100,89,65,30.04,29.76,5,1,7,0.25
2013-1-24,44.6,41.9,40.5,41.6,39.0,36.1,100,90,72,30.12,29.97,3,0,7,0.12
2013-1-25,50.1,44.9,41.6,46.8,43.2,39.7,100,94,80,29.98,29.84,2,0,6,0.09
2013-1-26,42.9,41.5,40.3,42.6,40.0,37.0,99,94,87,29.94,29.80,6,1,10,0.30
2013-1-27,41.9,40.5,39.5,39.9,38.8,37.5,98,94,89,29.97,29.91,5,1,13,0.11
2013-1-28,42.1,40.7,39.2,42.1,40.2,38.7,100,98,97,30.00,29.92,3,0,7,0.21
2013-1-29,46.1,44.0,41.8,46.1,44.0,41.8,100,100,100,30.25,30.01,3,0,10,0.35
2013-1-30,47.4,46.0,43.9,47.4,46.0,43.9,100,100,100,30.29,30.24,3,1,7,0.12
2013-1-31,47.0,46.0,45.4,47.0,45.9,45.4,100,100,96,30.31,30.22,3,0,14,0.11
2013-2-1,49.6,45.2,41.2,46.8,43.8,39.6,100,95,83,30.32,30.25,2,0,6,0.01
2013-2-2,41.5,39.9,38.2,41.0,39.5,38.0,100,98,95,30.30,30.18,2,0,7,0.00
2013-2-3,46.7,43.2,38.5,43.8,42.0,38.3,100,96,84,30.22,30.13,2,0,7,0.07
2013-2-4,49.8,45.6,43.2,43.9,42.4,39.4,100,89,69,30.13,29.81,3,0,8,0.00
2013-2-5,50.4,45.6,43.5,43.9,42.3,41.2,95,89,76,29.85,29.76,7,1,17,0.15
2013-2-6,48.9,45.2,43.3,41.4,40.4,38.2,91,83,70,29.97,29.71,6,2,16,0.07
2013-2-7,48.8,43.3,37.6,41.0,36.6,32.4,94,78,57,30.09,29.71,10,2,14,0.07
2013-2-8,43.6,38.8,33.1,38.4,35.3,32.3,99,88,75,30.22,30.11,5,0,6,0.00
2013-2-9,43.6,41.2,39.3,40.0,38.6,36.3,96,91,81,30.25,30.18,2,0,5,0.01
2013-2-10,47.4,39.5,32.8,40.3,36.3,32.0,100,89,63,30.30,30.23,3,0,6,0.00
2013-2-11,46.0,42.7,39.9,41.3,39.1,37.5,96,88,73,30.27,30.24,4,0,7,0.04
2013-2-12,48.2,45.7,43.3,46.8,44.1,39.6,100,94,86,30.32,30.20,6,1,13,0.02
2013-2-13,47.4,44.5,43.1,45.1,43.2,42.2,98,95,90,30.40,30.22,4,1,7,0.17
2013-2-14,47.9,44.9,42.8,44.4,42.8,40.9,96,92,81,30.47,30.41,2,0,6,0.05
2013-2-15,56.0,45.1,40.5,45.2,41.8,39.3,100,89,64,30.46,30.11,4,1,6,0.00
2013-2-16,51.3,43.7,39.6,44.8,41.7,38.6,99,93,71,30.11,30.02,11,1,11,0.27
2013-2-17,45.1,41.2,39.5,39.3,37.6,35.8,97,87,72,30.16,30.04,5,1,7,0.01
2013-2-18,44.9,41.3,37.6,38.4,36.3,34.8,93,83,69,30.03,29.68,6,1,8,0.01
2013-2-19,50.7,42.4,37.0,36.3,35.0,32.2,91,76,54,29.92,29.66,3,1,10,0.00
2013-2-20,44.2,39.9,36.3,39.0,36.6,34.2,96,88,74,29.96,29.91,4,0,11,0.10
2013-2-21,43.3,41.5,38.6,40.5,39.3,37.8,99,92,84,29.98,29.93,8,1,13,0.03
2013-2-22,45.1,42.3,38.9,41.5,38.8,33.3,94,87,78,29.97,29.60,10,3,26,0.09
2013-2-23,47.7,42.6,39.2,36.8,35.6,33.7,86,77,59,30.29,29.82,6,1,12,0.00
2013-2-24,46.7,44.0,41.1,38.0,36.2,34.2,81,74,62,30.29,29.88,10,2,21,0.00
2013-2-25,53.2,43.9,39.9,40.1,36.8,32.6,92,77,53,30.21,29.81,7,2,20,0.09
2013-2-26,46.8,42.9,38.5,36.5,34.7,32.5,85,73,58,30.27,30.11,7,2,12,0.01
2013-2-27,47.6,43.6,40.6,43.1,40.3,36.9,97,88,70,30.22,30.11,4,1,10,0.24
2013-2-28,49.6,45.7,42.1,49.6,45.4,41.5,100,99,97,30.23,30.10,2,1,11,0.14
2013-3-1,53.3,50.8,49.2,50.8,49.2,47.1,100,94,82,30.28,30.20,6,1,18,0.05
2013-3-2,53.8,47.9,38.3,48.8,44.1,37.2,96,87,76,30.19,29.99,6,1,16,0.32
2013-3-3,51.1,40.8,35.9,38.9,35.2,31.0,99,82,52,30.22,30.12,4,1,8,0.00
2013-3-4,53.5,41.4,30.4,33.6,28.6,23.4,95,65,31,30.22,29.85,7,1,10,0.00
2013-3-5,50.1,45.8,42.3,39.0,31.8,22.1,86,60,38,29.84,29.65,2,0,7,0.00
2013-3-6,43.1,41.7,40.3,41.5,39.2,37.2,99,91,80,29.80,29.50,5,1,11,0.43
2013-3-7,49.6,43.4,39.5,44.9,41.5,38.3,100,93,73,30.00,29.82,4,1,8,0.18
2013-3-8,53.3,41.1,33.2,40.1,37.2,33.2,100,87,58,30.15,30.00,6,1,10,0.00
2013-3-9,52.2,42.0,33.5,40.2,36.0,32.7,100,81,52,30.41,30.16,5,1,7,0.00
2013-3-10,46.2,42.2,37.6,41.6,38.2,35.2,93,86,71,30.41,30.35,5,0,7,0.01
2013-3-11,50.2,45.8,41.8,45.6,41.8,39.0,97,87,69,30.36,30.09,2,0,6,0.02
2013-3-12,51.9,49.6,46.8,50.5,47.6,45.7,100,93,80,30.08,29.99,5,2,17,0.04
2013-3-13,51.3,49.9,48.3,51.0,48.7,46.8,100,96,88,30.12,30.02,4,2,14,0.21
2013-3-14,50.7,49.1,47.6,50.7,47.5,44.2,100,94,81,30.07,29.95,5,1,11,0.04
2013-3-15,57.5,50.5,47.6,49.1,47.5,44.8,99,90,70,30.13,30.06,3,0,8,0.00
2013-3-16,49.2,45.8,38.6,45.4,41.4,34.2,92,85,69,30.06,29.81,6,2,18,0.02
2013-3-17,49.5,41.6,37.9,37.2,35.3,32.9,93,79,58,30.11,29.90,9,2,14,0.06
2013-3-18,49.4,43.3,37.9,40.2,35.7,32.2,93,76,54,30.16,30.02,9,2,17,0.03
2013-3-19,53.9,42.6,34.9,39.9,34.9,28.2,91,77,37,30.15,29.54,9,1,13,0.22
2013-3-20,50.1,45.9,37.6,48.3,41.5,33.5,97,85,71,29.93,29.31,8,2,26,0.53
2013-3-21,46.2,39.4,36.6,36.4,34.7,32.5,93,84,60,30.13,29.94,6,1,12,0.05
2013-3-22,47.4,38.8,34.1,35.1,31.7,24.7,93,77,46,30.29,30.14,3,1,8,0.03
2013-3-23,47.7,39.3,32.5,31.5,28.2,21.8,89,67,37,30.31,30.22,6,1,8,0.00
2013-3-24,53.2,42.1,31.6,32.9,29.6,24.7,88,64,33,30.22,30.04,3,1,6,0.00
2013-3-25,61.5,49.1,36.2,33.9,28.5,24.8,71,47,26,30.05,29.85,4,1,7,0.00
2013-3-26,59.9,50.0,44.2,39.8,36.7,33.9,76,61,38,29.94,29.88,6,1,7,0.00
2013-3-27,55.4,48.5,44.2,48.3,41.3,35.2,93,77,59,29.90,29.85,3,1,6,0.02
2013-3-28,59.8,50.9,44.3,49.2,44.9,42.7,98,82,57,30.06,29.91,5,1,8,0.02
2013-3-29,65.0,53.1,44.1,47.4,44.1,41.9,94,74,49,30.16,30.07,3,0,6,0.00
2013-3-30,66.4,52.9,41.1,47.0,43.7,39.8,96,73,47,30.17,30.00,5,1,8,0.00
2013-3-31,69.9,55.5,43.3,46.2,43.3,40.5,91,66,39,30.00,29.83,3,0,6,0.00
2013-4-1,58.7,52.1,47.4,48.3,46.2,44.2,94,81,63,30.07,29.88,6,1,8,0.00
2013-4-2,55.0,51.4,48.5,47.5,45.8,44.5,90,81,72,30.12,30.07,5,1,10,0.00
2013-4-3,62.0,53.0,45.5,46.5,44.6,41.1,95,75,49,30.11,29.88,3,0,8,0.00
2013-4-4,53.8,51.5,48.9,53.8,49.4,44.9,100,93,80,29.87,29.57,3,0,14,0.33
2013-4-5,56.3,51.5,47.9,52.3,49.2,46.9,100,92,75,29.79,29.65,6,2,18,0.34
2013-4-6,53.9,47.7,45.4,47.7,44.8,41.4,96,90,72,29.85,29.62,11,3,16,0.36
2013-4-7,45.2,43.0,39.5,43.3,41.5,38.7,100,95,86,29.81,29.42,3,1,11,0.57
2013-4-8,53.1,46.7,42.3,45.2,43.1,41.0,97,88,70,30.18,29.81,6,1,8,0.04
2013-4-9,53.3,48.7,43.6,45.4,42.3,40.5,93,79,62,30.27,30.11,6,1,10,0.00
2013-4-10,55.6,51.3,48.0,51.9,45.9,42.0,100,82,68,30.17,29.86,4,2,13,0.17
2013-4-11,53.5,47.7,43.6,44.0,39.6,34.7,93,74,53,30.22,30.12,4,0,11,0.07
2013-4-12,45.4,42.9,40.2,38.9,37.6,36.1,86,82,72,30.11,29.89,6,1,11,0.00
2013-4-13,47.7,41.7,36.0,42.5,39.1,34.4,96,91,80,29.91,29.70,7,1,13,0.41
2013-4-14,53.2,44.9,38.6,41.3,37.3,31.3,99,77,47,29.93,29.84,5,1,10,0.06
2013-4-15,54.7,45.6,40.1,39.7,38.3,34.2,92,77,49,30.09,29.87,3,1,18,0.00
2013-4-16,57.2,44.5,37.2,43.6,38.2,35.6,96,80,47,30.31,30.10,3,0,10,0.12
2013-4-17,58.4,47.5,37.8,41.7,37.3,32.3,93,70,40,30.37,30.31,8,2,12,0.00
2013-4-18,50.1,47.1,44.2,48.3,42.5,38.1,97,84,74,30.37,30.14,6,1,12,0.13
2013-4-19,53.1,50.1,48.2,53.1,50.0,48.1,100,100,97,30.12,29.98,6,1,11,0.34
2013-4-20,53.2,48.7,46.0,48.6,46.6,45.2,100,93,77,30.20,30.11,7,1,10,0.26
2013-4-21,52.9,46.2,42.1,46.3,42.8,37.9,99,89,67,30.28,30.15,4,0,8,0.11
2013-4-22,60.1,48.1,37.3,41.9,35.1,23.2,99,66,28,30.44,30.29,5,1,10,0.00
2013-4-23,63.2,49.3,37.0,39.9,34.1,22.7,91,61,22,30.34,30.16,4,1,10,0.00
2013-4-24,69.6,54.7,40.3,45.2,36.6,27.5,91,56,21,30.24,29.98,6,1,6,0.00
2013-4-25,68.6,56.6,43.5,44.0,38.2,32.5,79,53,28,30.05,29.96,6,1,8,0.00
2013-4-26,64.7,54.8,46.5,49.8,46.1,42.9,93,74,56,30.17,30.05,6,1,8,0.00
2013-4-27,54.8,53.4,51.7,48.0,45.0,39.9,85,74,58,30.14,30.07,7,1,18,0.00
2013-4-28,57.3,50.7,46.1,47.9,44.9,41.5,96,82,61,30.14,29.89,8,1,19,0.08
2013-4-29,56.5,48.4,43.6,46.9,38.5,29.1,96,71,35,30.08,29.83,4,1,12,0.08
2013-4-30,47.9,40.4,35.9,40.4,37.1,33.0,95,88,75,30.23,30.09,2,0,7,0.14
2013-5-1,64.2,49.7,34.9,38.5,34.0,25.3,91,60,25,30.49,30.37,2,0,8,0.00
2013-5-2,69.6,55.1,43.2,45.2,40.1,37.2,83,59,37,30.46,30.29,4,0,7,0.00
2013-5-3,69.8,57.3,44.3,49.2,43.9,39.8,88,63,42,30.31,30.15,5,1,10,0.00
2013-5-4,77.0,63.4,50.5,49.1,44.5,36.3,82,54,26,30.15,29.92,3,0,10,0.00
2013-5-5,80.9,66.0,50.1,50.6,45.1,39.4,79,51,24,29.92,29.69,5,0,7,0.00
2013-5-6,85.3,68.2,52.8,49.8,44.5,39.7,72,46,21,29.77,29.66,4,0,8,0.00
2013-5-7,67.8,59.0,52.0,53.4,50.0,47.0,90,73,55,29.91,29.73,10,2,11,0.00
2013-5-8,62.0,55.9,51.9,52.3,49.9,48.4,90,81,66,30.06,29.92,5,1,8,0.00
2013-5-9,68.4,56.9,50.7,54.4,50.8,46.2,96,82,45,30.14,30.04,5,1,10,0.00
2013-5-10,77.9,62.4,48.8,54.5,50.6,46.9,95,69,34,30.12,30.03,3,0,6,0.00
2013-5-11,78.1,65.1,55.6,54.4,49.1,42.1,80,58,37,30.09,29.90,3,0,10,0.00
2013-5-12,69.6,62.5,58.1,58.8,56.1,51.0,96,80,59,30.02,29.94,3,1,11,0.08
2013-5-13,62.7,56.7,50.1,57.2,51.4,41.6,93,83,63,30.11,29.86,8,1,21,0.11
2013-5-14,60.7,54.3,48.6,44.4,41.8,36.2,81,64,40,30.15,30.03,7,2,10,0.00
2013-5-15,64.3,53.6,45.2,51.0,45.3,40.7,91,75,42,30.05,29.94,5,1,10,0.03
2013-5-16,70.9,59.8,52.8,52.7,50.5,46.3,95,74,43,29.94,29.78,2,0,6,0.01
2013-5-17,61.5,56.9,53.3,51.0,48.9,45.3,90,75,56,29.97,29.87,6,1,11,0.01
2013-5-18,59.6,55.8,52.5,48.8,46.6,43.3,86,72,56,30.18,29.98,4,1,10,0.00
2013-5-19,65.3,56.6,51.7,50.6,47.9,45.9,85,73,54,30.32,30.19,3,0,6,0.00
2013-5-20,63.7,53.3,46.0,49.5,46.7,44.3,96,80,51,30.27,29.95,8,2,8,0.00
2013-5-22,52.9,48.2,44.2,45.7,44.6,43.1,96,88,75,29.86,29.77,3,1,8,0.14
2013-5-23,55.6,49.6,45.4,47.4,44.1,40.6,94,82,57,29.94,29.85,5,1,12,0.05
2013-5-24,60.4,53.0,46.1,49.8,45.3,40.4,94,77,48,29.97,29.89,4,1,10,0.01
2013-5-25,62.7,55.5,51.0,48.7,46.2,41.2,87,72,48,29.96,29.89,5,1,11,0.01
2013-5-26,64.7,55.7,50.7,53.8,50.2,47.6,95,82,63,29.91,29.86,3,0,7,0.05
2013-5-27,59.3,55.6,51.7,54.9,51.8,48.7,95,87,80,29.89,29.64,2,1,10,0.21
2013-5-28,57.6,54.3,52.2,52.2,49.6,46.6,94,85,70,29.78,29.70,2,1,10,0.00
2013-5-29,59.9,53.5,50.1,52.1,49.2,47.5,95,85,72,29.84,29.61,3,0,8,0.09
2013-5-30,60.9,55.1,50.2,49.2,47.1,45.0,88,75,58,30.15,29.89,6,1,17,0.01
2013-5-31,67.6,57.4,51.9,48.5,45.4,40.9,85,67,40,30.26,30.16,6,1,8,0.00
2013-6-1,69.6,59.2,51.3,49.9,46.2,40.0,85,64,35,30.17,29.97,8,1,8,0.00
2013-6-2,70.1,60.3,52.5,52.5,49.2,46.0,95,68,44,30.01,29.96,2,0,8,0.06
2013-6-3,69.9,59.0,51.6,52.7,50.2,48.1,92,74,48,30.04,29.98,8,1,10,0.00
2013-6-4,78.5,64.4,49.9,55.9,50.8,45.9,94,65,40,30.05,29.94,1,0,7,0.00
2013-6-5,77.6,64.8,53.1,57.5,51.8,45.7,79,64,47,30.01,29.95,2,0,8,0.00
2013-6-6,79.2,64.5,52.3,55.9,49.3,42.7,92,62,28,29.98,29.92,7,1,10,0.00
2013-6-7,67.4,60.6,55.6,55.8,47.8,42.2,76,63,46,30.07,29.94,7,1,10,0.00
2013-6-8,68.4,59.0,53.1,51.4,48.0,45.8,78,67,53,30.11,30.02,3,0,7,0.00
2013-6-9,68.6,57.6,50.8,49.5,46.7,44.3,86,68,45,30.04,29.94,2,0,10,0.00
2013-6-10,69.6,58.6,47.3,48.5,45.6,41.0,87,64,36,29.96,29.80,6,0,7,0.00
2013-6-11,64.7,57.0,52.6,52.7,47.1,44.9,87,70,56,30.02,29.86,6,1,17,0.13
2013-6-12,66.9,58.4,53.2,51.5,46.8,42.7,86,67,45,30.06,30.02,7,1,13,0.00
2013-6-13,69.3,59.5,52.8,50.7,47.4,40.9,85,66,38,30.13,30.06,4,0,10,0.00
2013-6-14,64.3,58.4,54.7,49.1,48.0,47.0,78,69,57,30.15,29.98,6,1,12,0.00
2013-6-15,65.2,53.9,49.2,51.8,49.1,47.5,95,85,59,29.98,29.88,1,0,6,0.00
2013-6-16,60.7,60.3,59.9,51.6,51.6,51.6,74,73,72,30.01,30.00,0,0,0,0.00
2013-6-17,75.3,63.9,57.0,53.7,50.7,43.5,83,64,35,30.01,29.81,8,2,10,0.00
2013-6-18,70.8,62.9,56.6,54.1,49.0,40.3,87,63,33,29.90,29.79,6,1,11,0.00
2013-6-19,62.0,57.3,55.7,52.0,50.2,48.8,83,77,63,29.86,29.84,6,1,8,0.00
2013-6-21,66.1,58.7,52.3,55.1,52.1,47.0,100,81,53,30.08,30.03,3,0,7,0.01
2013-6-22,74.6,63.8,51.4,54.3,51.0,45.7,98,67,38,30.04,29.77,3,1,7,0.00
2013-6-23,70.6,64.3,58.7,61.9,57.6,53.2,94,79,64,29.76,29.52,2,0,6,0.11
2013-6-24,66.9,61.9,56.5,61.2,56.2,52.7,99,83,62,29.63,29.50,2,1,13,0.08
2013-6-25,72.0,61.9,56.5,58.8,55.7,50.5,96,82,47,29.78,29.60,4,1,11,0.33
2013-6-26,72.7,63.2,57.3,61.2,57.2,55.1,99,82,63,30.00,29.77,4,0,11,0.03
2013-6-27,69.9,64.5,59.9,62.1,59.9,55.6,97,86,73,30.12,29.97,2,0,6,0.07
2013-6-28,79.2,67.5,60.1,63.2,61.3,59.2,98,82,56,30.11,29.98,3,0,7,0.00
2013-6-29,81.4,71.8,64.5,63.0,59.7,56.6,87,67,47,30.02,29.90,6,1,8,0.00
2013-6-30,91.0,75.6,60.7,65.7,60.8,55.0,86,62,38,29.93,29.76,2,0,5,0.00
2013-7-1,88.2,75.4,63.9,62.8,59.7,57.3,79,60,39,29.92,29.82,2,0,7,0.00
2013-7-2,81.2,70.1,60.5,61.1,54.9,47.8,85,61,35,30.02,29.93,7,0,7,0.00
2013-7-3,79.6,67.2,58.7,55.1,49.8,42.2,69,55,34,30.06,29.96,6,1,7,0.00
2013-7-4,67.8,61.6,56.3,53.9,51.8,49.4,81,71,54,30.04,29.95,5,1,10,0.00
2013-7-5,72.1,63.2,54.8,55.6,53.5,51.5,89,72,53,29.95,29.87,5,1,8,0.00
2013-7-6,78.3,66.0,55.6,57.0,54.5,51.6,93,69,41,29.90,29.78,2,0,6,0.00
2013-7-7,72.7,64.5,57.3,60.6,56.1,51.9,88,75,60,29.87,29.80,9,1,12,0.00
2013-7-8,75.1,64.6,56.7,60.3,55.3,52.6,86,73,47,30.01,29.86,7,1,10,0.00
2013-7-9,84.0,69.6,57.6,58.7,55.4,50.9,87,63,40,30.02,29.92,6,0,8,0.00
2013-7-10,61.8,59.6,58.0,51.5,51.2,50.6,79,74,68,29.95,29.94,0,0,2,0.00
2013-7-11,72.1,60.5,55.3,51.5,48.0,45.3,80,65,43,30.00,29.92,3,1,8,0.00
2013-7-12,66.9,58.7,50.8,52.2,49.2,46.1,84,71,58,30.01,29.93,2,0,7,0.00
2013-7-13,76.3,63.3,49.4,52.0,48.1,45.0,86,61,36,30.12,30.02,2,0,7,0.00
2013-7-14,58.0,57.5,56.9,48.3,48.3,48.3,73,72,70,30.04,30.04,0,0,0,0.00
2013-7-17,69.4,67.0,60.9,57.5,55.9,54.7,80,68,63,30.10,30.07,3,0,8,0.01
2013-7-18,76.5,65.7,58.6,58.0,55.5,53.0,87,71,49,30.15,30.04,5,0,10,0.00
2013-7-19,78.8,65.0,54.1,61.3,56.1,52.1,95,75,49,30.09,29.95,5,1,8,0.00
2013-7-20,72.8,62.6,54.5,59.5,56.0,52.1,93,80,62,30.01,29.88,6,1,8,0.00
2013-7-21,72.1,63.0,57.0,59.7,56.5,54.7,93,80,61,29.91,29.83,6,1,10,0.00
2013-7-22,73.5,64.5,57.0,59.9,56.6,54.8,94,77,57,29.99,29.86,5,1,8,0.00
2013-7-23,83.8,69.4,55.9,59.9,55.1,50.5,91,64,35,29.98,29.88,5,0,7,0.00
2013-7-24,84.5,70.2,57.2,57.2,52.2,45.2,81,56,32,29.97,29.90,4,0,6,0.00
2013-7-25,84.3,69.3,55.1,54.4,50.4,46.4,78,54,29,30.01,29.94,2,0,6,0.00
2013-7-26,76.8,62.7,55.7,54.7,51.9,49.8,82,69,43,30.06,29.99,2,0,6,0.00
2013-7-27,74.4,69.9,62.3,53.1,51.2,49.4,64,52,42,30.06,29.91,5,1,11,0.00
2013-7-28,68.3,61.0,54.8,54.8,52.8,50.1,88,75,61,29.95,29.87,7,1,11,0.00
2013-7-29,71.6,63.2,57.0,56.0,53.2,51.4,82,71,54,29.93,29.87,6,1,10,0.00
2013-7-30,73.7,64.8,57.2,58.9,55.3,53.0,87,72,53,30.06,29.92,7,2,10,0.00
2013-7-31,67.6,62.0,57.5,60.5,57.1,54.7,93,84,73,30.04,29.91,3,0,8,0.00
2013-8-1,66.3,61.6,56.2,57.4,55.0,53.6,91,79,68,29.98,29.95,7,1,10,0.00
2013-8-2,61.6,59.9,58.4,59.6,57.0,54.2,100,90,80,30.05,29.98,5,0,11,0.19
2013-8-3,73.5,64.2,59.0,60.4,58.6,55.8,100,84,59,30.05,29.97,3,0,8,0.00
2013-8-4,79.6,67.9,55.7,61.3,57.5,54.3,96,72,50,29.98,29.86,2,0,7,0.00
2013-8-5,84.7,71.0,57.8,60.8,56.2,49.8,91,63,31,29.93,29.84,3,0,7,0.00
2013-8-6,84.9,69.4,56.0,59.0,53.2,48.4,83,59,31,29.92,29.82,3,0,7,0.00
2013-8-7,84.9,69.3,57.5,58.9,54.5,50.5,86,62,34,29.93,29.85,5,1,8,0.00
2013-8-8,80.3,68.6,60.1,61.1,56.4,53.1,89,66,45,29.95,29.86,7,1,12,0.00
2013-8-9,81.6,69.6,57.8,58.9,54.9,50.9,81,61,42,29.87,29.75,3,0,7,0.00
2013-8-10,74.9,66.9,59.3,62.5,60.3,58.1,98,80,58,29.92,29.81,7,1,12,0.10
2013-8-11,72.3,65.3,58.6,59.3,54.9,52.6,88,70,52,29.98,29.90,7,1,10,0.00
2013-8-12,74.2,65.7,57.6,56.5,54.9,53.4,87,70,50,29.99,29.92,4,1,8,0.00
2013-8-13,77.7,66.7,57.2,57.1,54.5,48.7,89,67,37,30.02,29.84,3,1,8,0.00
2013-8-14,78.8,66.9,58.4,62.2,57.5,54.0,91,74,45,29.88,29.82,6,1,7,0.01
2013-8-15,68.4,66.2,63.4,66.3,63.4,61.2,97,91,83,29.92,29.84,5,0,6,0.04
2013-8-16,79.8,70.0,61.8,66.6,59.9,50.3,100,74,36,29.92,29.86,7,1,11,0.00
2013-8-17,76.5,69.0,62.3,60.1,57.6,55.2,80,68,53,29.99,29.92,6,1,13,0.00
2013-8-18,78.1,66.6,60.5,58.2,55.5,51.4,84,68,50,30.04,29.98,6,1,11,0.00
2013-8-19,76.5,66.5,60.4,57.2,54.0,49.8,76,65,50,30.03,29.98,6,1,9,0.00
2013-8-20,75.1,65.6,56.9,56.0,51.7,48.4,81,62,48,30.08,29.98,6,1,8,0.00
2013-8-21,79.6,66.5,53.6,55.2,51.1,48.1,85,60,38,30.01,29.85,5,0,8,0.00
2013-8-22,84.9,70.5,57.0,56.4,52.9,49.8,78,56,31,29.86,29.71,6,0,7,0.00
2013-8-23,73.2,67.0,62.6,57.5,56.2,53.9,82,69,54,29.81,29.73,6,1,14,0.00
2013-8-24,74.7,65.9,60.4,57.4,54.8,49.4,89,69,43,29.83,29.77,6,1,9,0.00
2013-8-25,74.7,63.3,53.5,60.4,54.4,50.7,91,75,50,29.86,29.79,3,0,6,0.02
2013-8-26,73.9,65.4,61.3,60.6,57.6,53.4,88,76,52,29.87,29.78,4,0,7,0.05
2013-8-27,63.4,62.9,62.6,57.8,57.6,57.3,84,83,82,29.87,29.87,0,0,2,0.00
2013-9-10,78.1,65.9,56.7,62.7,59.0,55.5,100,80,55,29.91,29.80,2,0,8,0.00
2013-9-11,91.4,73.1,59.9,64.6,59.4,55.2,96,66,31,29.85,29.78,1,0,5,0.00
2013-9-12,75.4,66.4,60.9,62.2,59.8,58.2,96,80,57,29.92,29.82,5,1,8,0.00
2013-9-13,65.6,62.9,60.1,60.9,59.7,58.0,100,89,82,29.88,29.79,1,0,5,0.00
2013-9-14,68.4,64.1,61.0,61.2,59.8,58.8,95,86,75,29.79,29.65,2,0,6,0.00
2013-9-15,64.7,63.0,61.8,62.4,61.2,60.1,99,94,87,29.73,29.68,3,0,10,0.17
2013-9-16,68.9,61.7,57.2,61.4,57.5,53.4,97,86,68,29.85,29.73,7,1,17,0.02
2013-9-17,61.5,58.2,55.3,53.8,52.7,51.0,92,82,69,29.85,29.79,2,0,5,0.00
2013-9-18,69.9,60.4,55.0,54.3,51.7,48.4,93,74,52,29.99,29.86,5,0,8,0.00
2013-9-19,76.3,62.3,49.1,55.1,49.8,46.0,90,66,37,29.97,29.67,3,0,6,0.00
2013-9-20,74.2,63.3,56.3,56.9,53.1,48.9,94,71,45,29.67,29.51,4,0,9,0.06
2013-9-21,69.8,61.5,56.7,56.9,54.5,52.3,92,79,56,29.64,29.57,6,1,10,0.00
2013-9-22,61.2,58.6,55.4,56.3,53.8,48.6,92,84,64,29.64,29.50,10,2,22,0.24
2013-9-23,62.3,56.7,51.6,55.5,52.6,46.9,94,86,75,29.89,29.66,6,1,19,0.19
2013-9-24,62.6,55.5,51.0,50.9,48.8,45.2,94,79,54,29.88,29.75,7,1,11,0.02
2013-9-25,56.3,51.5,48.2,50.7,48.5,45.8,99,90,68,29.95,29.78,2,0,6,0.06
2013-9-26,62.7,52.3,45.8,52.0,47.6,45.3,100,85,64,30.05,29.95,2,0,6,0.00
2013-9-27,57.0,54.9,50.7,53.4,50.7,47.4,91,86,80,30.04,29.77,7,2,13,0.06
2013-9-28,60.1,56.4,52.5,59.5,55.0,51.4,100,95,85,29.77,29.27,7,2,20,0.80
2013-9-29,56.2,54.0,51.7,53.1,50.2,48.2,97,87,80,29.48,29.09,12,3,26,0.38
2013-9-30,57.0,52.9,50.8,52.2,49.4,46.4,95,88,77,29.83,29.34,16,3,21,0.08
2013-10-1,58.4,52.4,48.8,48.8,46.8,44.5,91,81,64,30.03,29.82,10,2,16,0.12
2013-10-2,53.3,50.9,48.6,49.0,47.6,45.9,96,89,76,30.09,29.97,3,0,14,0.20
2013-10-3,56.3,50.9,45.7,50.2,46.9,44.1,100,87,69,30.37,30.09,2,0,3,0.00
2013-10-4,60.7,50.5,42.1,48.7,44.7,41.8,100,82,56,30.40,30.27,4,0,6,0.01
2013-10-5,70.3,55.0,44.8,50.5,47.1,44.0,99,77,43,30.27,30.05,2,0,6,0.00
2013-10-6,72.5,57.1,46.0,52.5,47.5,44.5,100,74,39,30.04,29.80,5,1,12,0.00
2013-10-7,61.2,55.6,52.8,53.7,50.3,45.1,97,83,58,29.92,29.81,7,1,14,0.08
2013-10-8,53.1,50.6,44.5,49.9,46.8,43.4,96,87,77,29.99,29.88,4,0,10,0.26
2013-10-9,57.3,47.2,38.8,46.3,43.2,38.5,100,87,63,30.06,29.87,3,0,6,0.01
2013-10-10,58.4,51.6,46.2,49.4,46.9,44.5,96,85,66,29.99,29.86,2,0,7,0.00
2013-10-11,53.8,50.5,48.5,51.2,49.0,47.1,99,95,86,30.06,29.98,0,0,3,0.04
2013-10-12,58.1,50.6,45.5,50.8,48.2,44.4,100,92,72,30.13,29.98,2,0,6,0.03
2013-10-13,55.7,48.1,43.3,48.8,45.5,43.0,100,92,71,30.28,30.13,2,0,6,0.01
2013-10-14,60.1,47.5,39.9,47.2,43.6,39.6,100,88,58,30.34,30.28,2,0,7,0.00
2013-10-15,57.0,48.3,42.5,49.9,45.7,42.1,100,91,71,30.31,30.09,4,0,6,0.01
2013-10-16,53.6,49.9,45.5,49.2,47.3,44.4,100,91,80,30.12,30.06,3,0,6,0.00
2013-10-17,56.7,49.7,46.1,48.7,46.8,45.0,96,90,74,30.19,30.12,3,0,6,0.00
2013-10-18,58.6,48.5,42.5,50.6,46.3,42.5,100,93,71,30.16,30.06,2,0,6,0.00
2013-10-19,49.6,46.2,43.3,49.4,45.6,43.2,100,98,94,30.11,30.06,2,0,3,0.00
2013-10-20,49.6,47.2,45.8,48.0,46.3,45.2,100,97,91,30.12,30.07,3,0,6,0.01
2013-10-21,51.1,47.8,45.7,49.2,47.0,45.7,100,97,91,30.09,30.02,2,0,5,0.00
2013-10-22,54.7,48.4,45.8,51.5,47.6,45.5,100,97,87,30.04,29.95,1,0,3,0.00
2013-10-23,54.8,47.5,43.6,50.6,46.6,43.6,100,97,85,29.97,29.90,5,0,6,0.01
2013-10-24,50.2,47.9,44.6,49.9,47.6,44.6,100,99,96,30.04,29.94,2,0,3,0.00
2013-10-25,51.7,48.5,44.9,48.3,47.3,44.3,100,96,87,30.23,30.04,2,0,6,0.01
2013-10-26,52.5,49.3,45.2,47.9,46.2,44.9,100,89,77,30.25,30.12,3,0,6,0.00
2013-10-27,55.3,49.0,44.5,50.8,46.1,43.4,99,90,75,30.11,29.82,3,0,11,0.11
2013-10-28,57.5,49.0,42.1,45.4,38.6,32.8,100,70,41,29.86,29.80,6,1,12,0.00
2013-10-29,55.6,44.1,35.9,40.8,37.2,34.2,95,78,48,29.95,29.86,5,0,7,0.00
2013-10-30,55.4,47.2,37.9,47.5,41.3,35.9,94,81,65,30.04,29.95,5,1,11,0.02
2013-10-31,53.9,51.4,49.9,50.0,47.7,43.1,95,87,75,30.17,30.01,7,1,14,0.00
2013-11-1,59.3,53.9,50.1,51.2,49.7,47.3,97,86,66,30.18,29.77,1,0,5,0.00
2013-11-2,53.5,52.2,49.6,51.7,50.6,47.4,99,94,89,29.76,29.41,6,2,26,0.37
2013-11-3,43.6,41.8,40.9,39.5,38.8,38.3,92,89,83,30.02,29.97,2,0,3,161.36
2013-11-4,49.2,42.6,35.5,41.4,37.1,33.6,98,82,56,30.11,29.97,2,0,6,0.04
2013-11-5,53.8,46.9,42.8,49.0,44.9,39.6,97,93,79,30.17,29.93,2,0,6,0.15
2013-11-6,51.3,46.6,42.9,46.8,44.8,42.9,100,94,79,30.23,29.95,3,0,5,0.03
2013-11-7,51.4,49.0,47.7,51.4,47.9,45.5,100,96,85,29.94,29.63,6,2,21,0.72
2013-11-8,52.6,48.8,45.4,47.6,44.5,42.3,99,85,73,30.07,29.88,5,0,11,0.00
2013-11-9,48.9,42.8,39.8,42.6,40.7,38.8,97,92,73,30.07,30.01,2,0,3,0.00
2013-11-10,48.0,45.9,43.9,47.6,44.9,43.2,100,96,90,30.07,30.01,1,0,5,0.02
2013-11-11,57.0,48.4,42.8,49.4,45.1,42.2,100,89,72,30.07,29.91,2,0,3,0.00
2013-11-12,57.6,51.5,47.0,52.9,49.1,42.5,100,92,82,30.27,29.94,4,0,9,0.11
2013-11-13,52.6,51.4,49.9,51.1,48.9,47.1,98,91,82,30.34,30.23,3,0,12,0.00
2013-11-14,49.4,47.3,44.2,47.7,46.2,43.7,100,96,91,30.22,29.98,0,0,3,0.15
2013-11-15,47.0,45.1,43.5,46.7,44.1,41.1,100,96,90,29.97,29.25,13,2,21,0.17
2013-11-16,48.5,44.1,40.6,44.3,39.9,36.4,100,86,72,29.67,29.27,6,1,12,0.01
2013-11-17,51.4,47.5,44.1,47.4,43.8,38.1,93,87,78,29.81,29.68,8,2,19,0.00
2013-11-18,51.0,49.5,47.7,51.0,48.7,45.2,100,97,90,29.81,29.48,7,1,11,0.36
2013-11-19,52.2,43.1,38.0,52.2,39.4,23.4,100,88,52,29.97,29.46,5,1,13,0.06
2013-11-20,43.8,35.7,29.8,30.3,26.6,21.5,88,71,43,30.42,29.99,3,1,8,0.00
2013-11-21,43.8,33.9,28.1,29.7,25.4,22.4,89,73,44,30.58,30.43,3,0,7,0.00
2013-11-22,47.4,36.2,29.1,31.2,27.7,19.2,87,73,36,30.57,30.38,2,0,7,0.00
2013-11-23,50.4,39.1,32.1,37.4,31.5,26.9,86,75,51,30.36,30.11,3,0,5,0.00
2013-11-24,50.4,40.7,33.7,41.7,36.1,32.0,95,84,67,30.12,30.08,3,0,7,0.00
2013-11-30,49.8,49.4,48.9,48.1,45.6,43.4,97,87,79,30.19,30.02,4,2,7,0.10
2013-12-1,52.5,50.1,42.5,52.2,47.5,38.3,100,91,82,30.00,29.66,5,2,20,0.01
2013-12-2,44.8,39.5,36.8,38.0,34.7,30.3,96,83,60,29.97,29.73,4,1,11,0.07
2013-12-3,40.6,33.9,28.8,35.9,25.6,20.8,96,73,49,30.23,29.97,4,1,8,0.00
2013-12-4,38.2,29.8,25.4,27.9,24.1,22.1,92,80,58,30.27,30.21,3,1,6,0.00
2013-12-5,32.7,27.6,23.8,23.4,20.5,12.3,91,75,49,30.24,30.11,2,0,7,0.00
2013-12-6,33.1,27.5,22.7,12.0,7.3,4.3,57,42,30,30.15,30.06,7,1,11,0.00
2013-12-7,29.5,23.3,18.6,8.9,4.1,-1.8,64,44,27,30.34,30.15,3,1,10,0.00
2013-12-8,33.4,25.0,17.7,17.9,13.5,9.3,80,62,42,30.49,30.34,2,1,6,0.00
2013-12-9,33.1,28.3,21.1,26.0,19.0,15.5,79,68,57,30.50,30.40,3,0,5,0.00
2013-12-10,33.4,33.1,32.4,28.3,26.9,25.0,82,78,74,30.41,30.39,0,0,5,0.00
2013-12-11,39.2,33.8,29.7,34.8,30.6,27.5,93,88,78,30.33,30.08,2,0,5,0.00
2013-12-12,42.6,38.4,33.1,42.2,36.4,32.0,100,93,71,30.07,29.97,4,1,12,0.18
2013-12-13,46.5,44.8,42.5,46.5,44.8,42.5,100,100,100,30.32,30.04,2,0,8,0.02
2013-12-14,47.9,45.9,43.8,46.0,44.0,42.7,100,93,84,30.34,30.24,7,1,9,0.00
2013-12-15,49.1,47.6,46.4,48.5,46.8,43.1,100,97,84,30.36,30.23,8,1,11,0.13
2013-12-16,46.7,45.3,43.2,46.7,45.3,43.2,100,100,100,30.38,30.35,0,0,0,0.00
2013-12-17,44.1,41.0,38.6,42.2,40.5,38.6,100,98,93,30.17,30.02,1,0,6,0.01
2013-12-18,43.2,41.0,34.7,42.1,37.1,31.5,96,86,64,30.07,29.94,3,0,8,0.03
2013-12-19,37.9,33.5,29.0,32.1,27.2,23.8,92,78,60,30.26,30.07,3,0,5,0.00
2013-12-20,41.2,35.9,31.3,41.2,34.3,27.0,100,94,80,30.12,29.64,11,1,17,0.30
2013-12-21,43.9,41.3,38.5,43.9,41.3,38.5,100,100,100,30.08,29.76,1,0,3,0.11
2013-12-22,48.5,46.7,43.9,48.5,46.7,43.9,100,100,100,30.20,30.07,5,0,9,0.29
2013-12-23,51.9,47.1,43.1,51.4,46.0,39.8,100,96,86,30.43,30.03,16,2,21,0.08
2013-12-24,47.1,40.2,34.9,42.5,38.0,33.9,100,92,74,30.54,30.43,2,0,3,0.00
2013-12-25,38.3,33.9,30.6,36.8,33.3,30.2,100,98,93,30.45,30.32,2,0,3,0.00
2013-12-26,40.8,36.7,33.2,39.9,36.0,33.2,100,98,90,30.32,30.13,3,0,5,0.01
2013-12-27,44.5,39.6,33.4,44.5,39.6,33.4,100,100,99,30.28,30.03,2,0,8,0.01
2013-12-28,46.8,42.7,37.3,46.4,41.7,36.8,100,96,85,30.44,30.29,3,0,3,0.01
2013-12-29,41.9,39.1,36.9,40.8,38.7,36.9,100,98,95,30.40,30.23,2,0,5,0.00
2013-12-30,43.1,40.4,37.5,42.2,39.9,37.5,100,98,93,30.24,30.05,2,0,13,0.01
2013-12-31,44.6,43.3,39.3,44.6,42.2,39.3,100,96,86,30.29,30.11,3,0,6,0.00
2014-1-1,42.3,39.7,35.8,41.2,39.3,35.8,100,99,95,30.32,30.17,2,0,6,0.01
2014-1-2,47.3,44.2,41.1,45.2,43.1,40.8,100,96,84,30.16,29.82,4,0,11,0.19